LIMZ/CUF METAR and TAF weather

Enter ICAO airport designator
Station Type Date Time Source
LIMZ METAR 2020/04/05 05:50 UTC NOAA

LIMZ 050550Z 26005KT CAVOK 04/02 Q1024


Station Type Date Time Source
LIMZ Decoded METAR 2020/04/05 05:50 UTC NOAA

Cuneo / Levaldigi, Italy (LIMZ) 44-32-47N 007-37-20E
Apr 05, 2020 - 01:50 AM EDT / 2020.04.05 0550 UTC
Wind: from the W (260 degrees) at 6 MPH (5 KT):0
Visibility: greater than 7 mile(s):0
Temperature: 39 F (4 C)
Dew Point: 35 F (2 C)
Relative Humidity: 86%
Pressure (altimeter): 30.24 in. Hg (1024 hPa)
ob: LIMZ 050550Z 26005KT CAVOK 04/02 Q1024
cycle: 6

Station Type Date Time Source
LIMZ TAF 2020/04/04 18:21 UTC NOAA

TAF LIMZ 041700Z 0418/0518 VRB05KT CAVOK

Example: see airport list